createdAt,value
2019-03-05T00:00:34.672Z,90.70
2019-03-05T00:03:04.358Z,91.30
2019-03-05T00:05:34.016Z,91.30
2019-03-05T00:08:03.625Z,91.40
2019-03-05T00:10:33.280Z,91.30
2019-03-05T00:13:02.894Z,92.00
2019-03-05T00:15:32.892Z,91.50
2019-03-05T00:18:02.578Z,92.20
2019-03-05T00:20:32.164Z,92.20
2019-03-05T00:23:01.850Z,92.50
2019-03-05T00:25:36.876Z,92.40
2019-03-05T00:28:28.120Z,92.30
2019-03-05T00:31:16.960Z,92.30
2019-03-05T00:34:14.697Z,91.90
2019-03-05T00:37:00.737Z,92.30
2019-03-05T00:39:49.648Z,92.20
2019-03-05T00:42:58.091Z,91.70
2019-03-05T00:45:58.905Z,91.00
2019-03-05T00:48:59.796Z,91.60
2019-03-05T00:51:36.671Z,92.40
2019-03-05T00:54:25.430Z,92.20
2019-03-05T00:57:08.268Z,91.30
2019-03-05T01:00:12.096Z,91.70
2019-03-05T01:03:22.192Z,92.30
2019-03-05T01:06:02.374Z,91.70
2019-03-05T01:08:33.871Z,91.60
2019-03-05T01:11:03.551Z,91.10
2019-03-05T01:13:33.448Z,91.40
2019-03-05T01:16:04.729Z,91.40
2019-03-05T01:18:34.608Z,91.10
2019-03-05T01:21:04.607Z,91.40
2019-03-05T01:23:34.357Z,91.50
2019-03-05T01:26:04.250Z,91.90
2019-03-05T01:28:34.008Z,92.20
2019-03-05T01:31:21.086Z,92.50
2019-03-05T01:34:04.540Z,92.50
2019-03-05T01:36:35.834Z,92.70
2019-03-05T01:39:19.742Z,92.40
2019-03-05T01:41:49.328Z,92.30
2019-03-05T01:44:18.939Z,92.60
2019-03-05T01:46:48.635Z,92.70
2019-03-05T01:49:18.288Z,92.30
2019-03-05T01:51:47.969Z,92.40
2019-03-05T01:54:17.722Z,92.40
2019-03-05T01:56:47.312Z,92.60
2019-03-05T01:59:16.921Z,92.70
2019-03-05T02:01:46.673Z,93.10
2019-03-05T02:04:16.399Z,92.40
2019-03-05T02:06:46.057Z,92.40
2019-03-05T02:09:16.105Z,92.90
2019-03-05T02:11:45.829Z,92.60
2019-03-05T02:14:15.443Z,92.40
2019-03-05T02:16:45.101Z,92.60
2019-03-05T02:19:38.109Z,92.30
2019-03-05T02:22:12.309Z,92.40
2019-03-05T02:25:01.324Z,92.30
2019-03-05T02:28:10.128Z,92.20
2019-03-05T02:31:02.705Z,92.30
2019-03-05T02:33:55.624Z,92.50
2019-03-05T02:36:50.212Z,92.10
2019-03-05T02:39:48.334Z,91.90
2019-03-05T02:42:31.195Z,92.60
2019-03-05T02:45:33.724Z,92.70
2019-03-05T02:48:13.614Z,91.80
2019-03-05T02:51:08.638Z,92.00
2019-03-05T02:53:59.104Z,92.30
2019-03-05T02:56:50.300Z,92.80
2019-03-05T02:59:18.205Z,92.90
2019-03-05T03:02:05.542Z,92.40
2019-03-05T03:04:40.774Z,92.80
2019-03-05T03:07:10.530Z,92.80
2019-03-05T03:09:50.225Z,92.00
2019-03-05T03:12:19.906Z,92.90
2019-03-05T03:14:49.595Z,92.90
2019-03-05T03:17:19.269Z,92.20
2019-03-05T03:19:48.945Z,92.90
2019-03-05T03:22:18.603Z,92.80
2019-03-05T03:24:48.238Z,92.90
2019-03-05T03:27:17.894Z,92.80
2019-03-05T03:29:47.524Z,93.10
2019-03-05T03:32:17.115Z,92.80
2019-03-05T03:34:46.741Z,92.70
2019-03-05T03:37:16.390Z,92.80
2019-03-05T03:39:45.974Z,92.50
2019-03-05T03:42:15.585Z,92.20
2019-03-05T03:44:45.206Z,92.30
2019-03-05T03:47:14.860Z,92.30
2019-03-05T03:49:44.447Z,92.40
2019-03-05T03:52:14.134Z,92.30
2019-03-05T03:54:43.749Z,92.50
2019-03-05T03:57:13.466Z,92.50
2019-03-05T03:59:43.079Z,92.30
2019-03-05T04:02:12.668Z,92.40
2019-03-05T04:04:42.415Z,92.20
2019-03-05T04:07:12.163Z,92.00
2019-03-05T04:09:41.911Z,92.00
2019-03-05T04:12:11.586Z,91.80
2019-03-05T04:14:41.177Z,91.80
2019-03-05T04:17:10.791Z,91.60
2019-03-05T04:19:40.518Z,92.00
2019-03-05T04:22:10.116Z,92.70
2019-03-05T04:24:39.920Z,92.70
2019-03-05T04:27:09.539Z,92.40
2019-03-05T04:29:39.123Z,91.20
2019-03-05T04:32:08.742Z,91.60
2019-03-05T04:34:38.335Z,92.10
2019-03-05T04:37:07.935Z,92.00
2019-03-05T04:39:37.544Z,91.90
2019-03-05T04:42:07.274Z,92.00
2019-03-05T04:44:38.519Z,91.70
2019-03-05T04:47:08.165Z,90.80
2019-03-05T04:49:41.998Z,91.80
2019-03-05T04:52:13.244Z,92.30
2019-03-05T04:54:42.829Z,91.90
2019-03-05T04:57:12.683Z,91.80
2019-03-05T04:59:42.290Z,91.70
2019-03-05T05:02:12.046Z,91.40
2019-03-05T05:04:41.631Z,91.20
2019-03-05T05:07:11.245Z,91.00
2019-03-05T05:09:40.831Z,91.20
2019-03-05T05:12:10.457Z,91.10
2019-03-05T05:14:40.041Z,91.50
2019-03-05T05:17:09.630Z,91.60
2019-03-05T05:19:39.249Z,91.50
2019-03-05T05:22:08.833Z,91.40
2019-03-05T05:24:38.444Z,91.00
2019-03-05T05:27:08.036Z,91.00
2019-03-05T05:29:37.662Z,91.30
2019-03-05T05:32:07.249Z,91.00
2019-03-05T05:34:36.837Z,91.10
2019-03-05T05:37:06.451Z,90.70
2019-03-05T05:40:26.193Z,90.40
2019-03-05T05:42:55.806Z,90.50
2019-03-05T05:45:46.940Z,90.30
2019-03-05T05:48:16.669Z,90.60
2019-03-05T05:50:46.326Z,90.70
2019-03-05T05:53:16.078Z,91.00
2019-03-05T05:55:46.796Z,91.10
2019-03-05T05:58:16.480Z,91.10
2019-03-05T06:00:47.855Z,91.20
2019-03-05T06:03:17.470Z,91.20
2019-03-05T06:05:47.050Z,91.20
2019-03-05T06:08:16.734Z,90.80
2019-03-05T06:10:46.698Z,90.90
2019-03-05T06:13:16.364Z,90.90
2019-03-05T06:15:45.978Z,90.50
2019-03-05T06:18:15.593Z,90.50
2019-03-05T06:20:45.215Z,90.40
2019-03-05T06:23:14.832Z,90.50
2019-03-05T06:25:44.479Z,90.60
2019-03-05T06:28:14.081Z,90.50
2019-03-05T06:30:44.405Z,90.30
2019-03-05T06:33:14.023Z,90.20
2019-03-05T06:35:43.845Z,90.10
2019-03-05T06:38:13.529Z,89.70
2019-03-05T06:40:43.111Z,90.00
2019-03-05T06:43:13.320Z,90.00
2019-03-05T06:45:43.004Z,90.00
2019-03-05T06:48:12.692Z,89.40
2019-03-05T06:50:42.305Z,89.30
2019-03-05T06:53:11.969Z,88.50
2019-03-05T06:55:41.610Z,88.00
2019-03-05T06:58:11.985Z,87.20
2019-03-05T07:00:41.977Z,86.60
2019-03-05T07:03:11.755Z,86.10
2019-03-05T07:06:35.888Z,86.40
2019-03-05T07:09:15.495Z,86.20
2019-03-05T07:11:55.517Z,85.70
2019-03-05T07:14:41.399Z,84.40
2019-03-05T07:17:21.340Z,84.20
2019-03-05T07:20:24.754Z,83.50
2019-03-05T07:23:13.646Z,82.70
2019-03-05T07:25:43.402Z,83.40
2019-03-05T07:28:12.990Z,83.10
2019-03-05T07:30:42.700Z,82.60
2019-03-05T07:33:12.320Z,83.00
2019-03-05T07:35:42.262Z,83.20
2019-03-05T07:38:12.298Z,82.70
2019-03-05T07:40:41.900Z,82.60
2019-03-05T07:43:11.487Z,82.00
2019-03-05T07:45:41.084Z,82.30
2019-03-05T07:48:10.718Z,81.90
2019-03-05T07:50:40.876Z,82.10
2019-03-05T07:53:10.503Z,82.90
2019-03-05T07:55:40.119Z,82.80
2019-03-05T07:58:11.701Z,82.40
2019-03-05T08:00:41.893Z,81.20
2019-03-05T08:03:11.557Z,81.10
2019-03-05T08:05:41.341Z,81.10
2019-03-05T08:09:05.563Z,81.40
2019-03-05T08:11:35.223Z,81.60
2019-03-05T08:14:17.914Z,80.10
2019-03-05T08:16:47.506Z,76.50
2019-03-05T08:19:17.117Z,76.60
2019-03-05T08:21:46.708Z,76.50
2019-03-05T08:24:16.325Z,76.20
2019-03-05T08:26:45.911Z,75.40
2019-03-05T08:29:15.718Z,77.40
2019-03-05T08:31:45.306Z,75.90
2019-03-05T08:34:14.930Z,75.70
2019-03-05T08:36:44.519Z,77.30
2019-03-05T08:39:14.269Z,73.60
2019-03-05T08:41:43.857Z,74.50
2019-03-05T08:44:13.444Z,72.40
2019-03-05T08:46:43.057Z,72.90
2019-03-05T08:49:12.713Z,74.20
2019-03-05T08:51:42.324Z,73.40
2019-03-05T08:54:11.918Z,72.40
2019-03-05T08:56:42.032Z,71.60
2019-03-05T08:59:11.657Z,71.00
2019-03-05T09:01:41.273Z,69.50
2019-03-05T09:04:10.995Z,68.30
2019-03-05T09:06:40.605Z,68.20
2019-03-05T09:09:12.241Z,66.90
2019-03-05T09:11:41.853Z,66.40
2019-03-05T09:14:11.464Z,63.50
2019-03-05T09:16:41.050Z,63.40
2019-03-05T09:19:10.662Z,64.30
2019-03-05T09:21:40.318Z,64.10
2019-03-05T09:24:09.944Z,61.20
2019-03-05T09:26:50.482Z,61.00
2019-03-05T09:29:11.040Z,61.30
2019-03-05T09:31:40.642Z,59.80
2019-03-05T09:34:10.391Z,61.40
2019-03-05T09:36:50.533Z,60.90
2019-03-05T09:39:12.763Z,60.50
2019-03-05T09:41:42.494Z,61.70
2019-03-05T09:44:12.179Z,60.50
2019-03-05T09:46:41.781Z,59.10
2019-03-05T09:49:11.399Z,61.10
2019-03-05T09:51:40.990Z,59.70
2019-03-05T09:54:10.751Z,58.20
2019-03-05T09:56:40.410Z,58.10
2019-03-05T09:59:10.115Z,58.00
2019-03-05T10:01:39.841Z,55.60
2019-03-05T10:04:09.430Z,48.50
2019-03-05T10:06:39.043Z,50.30
2019-03-05T10:09:09.052Z,50.20
2019-03-05T10:11:38.740Z,50.30
2019-03-05T10:14:08.411Z,50.60
2019-03-05T10:16:38.034Z,49.80
2019-03-05T10:19:07.701Z,52.10
2019-03-05T10:21:45.894Z,50.90
2019-03-05T10:24:10.751Z,48.80
2019-03-05T10:26:40.605Z,49.10
2019-03-05T10:29:10.261Z,47.90
2019-03-05T10:31:40.328Z,46.00
2019-03-05T10:34:10.048Z,48.40
2019-03-05T10:36:39.742Z,47.30
2019-03-05T10:39:30.655Z,48.70
2019-03-05T10:41:56.471Z,47.00
2019-03-05T10:44:26.251Z,44.80
2019-03-05T10:46:56.338Z,44.30
2019-03-05T10:49:26.170Z,42.50
2019-03-05T10:51:55.794Z,43.50
2019-03-05T10:54:25.418Z,40.90
2019-03-05T10:56:55.149Z,42.20
2019-03-05T10:59:24.856Z,40.20
2019-03-05T11:01:54.619Z,41.60
2019-03-05T11:04:24.715Z,41.70
2019-03-05T11:06:54.414Z,39.40
2019-03-05T11:09:24.287Z,40.80
2019-03-05T11:11:53.920Z,40.40
2019-03-05T11:14:23.588Z,40.60
2019-03-05T11:16:53.435Z,39.50
2019-03-05T11:19:23.027Z,39.30
2019-03-05T11:21:52.706Z,39.00
2019-03-05T11:24:22.320Z,39.00
2019-03-05T11:26:52.018Z,39.60
2019-03-05T11:29:21.820Z,39.90
2019-03-05T11:31:51.487Z,39.10
2019-03-05T11:34:21.107Z,38.90
2019-03-05T11:36:50.704Z,38.30
2019-03-05T11:39:20.383Z,38.10
2019-03-05T11:41:50.014Z,38.70
2019-03-05T11:44:19.601Z,37.40
2019-03-05T11:46:49.293Z,36.80
2019-03-05T11:49:19.026Z,38.20
2019-03-05T11:51:48.722Z,35.60
2019-03-05T11:54:18.371Z,36.10
2019-03-05T11:56:48.015Z,35.80
2019-03-05T11:59:17.635Z,36.40
2019-03-05T12:01:47.252Z,35.90
2019-03-05T12:04:16.866Z,35.60
2019-03-05T12:06:46.531Z,35.50
2019-03-05T12:09:16.214Z,35.70
2019-03-05T12:11:45.808Z,36.30
2019-03-05T12:14:15.427Z,35.20
2019-03-05T12:16:45.128Z,34.80
2019-03-05T12:19:14.720Z,35.50
2019-03-05T12:21:44.316Z,34.60
2019-03-05T12:24:13.947Z,34.00
2019-03-05T12:26:43.684Z,35.70
2019-03-05T12:29:13.281Z,35.20
2019-03-05T12:31:42.910Z,35.50
2019-03-05T12:34:12.577Z,35.60
2019-03-05T12:36:42.191Z,36.00
2019-03-05T12:39:13.468Z,35.20
2019-03-05T12:41:43.091Z,34.90
2019-03-05T12:44:12.716Z,35.40
2019-03-05T12:46:42.320Z,34.20
2019-03-05T12:49:12.017Z,34.50
2019-03-05T12:51:41.847Z,34.60
2019-03-05T12:54:11.531Z,33.70
2019-03-05T12:56:41.223Z,33.00
2019-03-05T12:59:10.818Z,34.10
2019-03-05T13:01:40.523Z,34.20
2019-03-05T13:04:10.258Z,33.80
2019-03-05T13:06:39.925Z,34.50
2019-03-05T13:09:17.793Z,34.80
2019-03-05T13:11:46.589Z,34.10
2019-03-05T13:14:16.880Z,32.50
2019-03-05T13:16:46.548Z,34.90
2019-03-05T13:19:16.303Z,33.90
2019-03-05T13:21:48.544Z,35.00
2019-03-05T13:24:17.267Z,35.00
2019-03-05T13:26:46.872Z,35.00
2019-03-05T13:29:19.159Z,34.50
2019-03-05T13:31:47.818Z,34.10
2019-03-05T13:34:17.705Z,34.20
2019-03-05T13:36:50.606Z,35.70
2019-03-05T13:39:22.221Z,35.90
2019-03-05T13:41:55.282Z,36.00
2019-03-05T13:44:34.011Z,36.80
2019-03-05T13:47:05.708Z,38.10
2019-03-05T13:49:45.734Z,36.40
2019-03-05T13:52:50.457Z,37.30
2019-03-05T13:55:53.137Z,37.80
2019-03-05T13:59:12.065Z,38.90
2019-03-05T14:01:42.398Z,39.10
2019-03-05T14:04:53.832Z,38.60
2019-03-05T14:07:59.157Z,38.20
2019-03-05T14:10:28.751Z,38.60
2019-03-05T14:12:58.527Z,39.40
2019-03-05T14:15:28.493Z,39.50
2019-03-05T14:17:58.148Z,40.00
2019-03-05T14:20:32.064Z,40.30
2019-03-05T14:22:59.092Z,41.10
2019-03-05T14:25:28.783Z,40.40
2019-03-05T14:27:58.441Z,40.00
2019-03-05T14:30:28.269Z,39.40
2019-03-05T14:32:57.925Z,40.00
2019-03-05T14:35:27.987Z,40.70
2019-03-05T14:37:57.716Z,40.60
2019-03-05T14:40:30.260Z,40.80
2019-03-05T14:43:00.180Z,41.80
2019-03-05T14:45:36.570Z,41.30
2019-03-05T14:48:06.649Z,39.20
2019-03-05T14:50:36.789Z,40.50
2019-03-05T14:53:06.634Z,40.80
2019-03-05T14:55:36.361Z,40.60
2019-03-05T14:58:06.154Z,40.40
2019-03-05T15:00:35.877Z,39.60
2019-03-05T15:03:05.764Z,40.10
2019-03-05T15:05:35.568Z,42.40
2019-03-05T15:08:05.231Z,42.60
2019-03-05T15:10:35.145Z,43.00
2019-03-05T15:13:15.294Z,42.70
2019-03-05T15:15:36.784Z,42.50
2019-03-05T15:18:06.619Z,42.90
2019-03-05T15:20:36.228Z,43.80
2019-03-05T15:23:05.915Z,43.70
2019-03-05T15:25:35.608Z,43.50
2019-03-05T15:28:05.448Z,43.60
2019-03-05T15:30:35.287Z,43.40
2019-03-05T15:33:04.914Z,43.50
2019-03-05T15:35:34.546Z,44.10
2019-03-05T15:38:04.168Z,43.80
2019-03-05T15:40:33.729Z,43.20
2019-03-05T15:43:03.374Z,44.20
2019-03-05T15:48:16.841Z,44.30
2019-03-05T15:50:46.425Z,44.10
2019-03-05T15:53:16.018Z,45.20
2019-03-05T15:55:45.705Z,44.90
2019-03-05T15:58:15.300Z,44.90
2019-03-05T16:00:45.364Z,45.40
2019-03-05T16:03:14.955Z,46.20
2019-03-05T16:05:44.719Z,45.80
2019-03-05T16:08:14.313Z,46.30
2019-03-05T16:10:43.923Z,46.80
2019-03-05T16:13:15.367Z,46.80
2019-03-05T16:15:45.456Z,46.60
2019-03-05T16:18:16.187Z,46.90
2019-03-05T16:20:45.881Z,47.20
2019-03-05T16:23:15.502Z,47.80
2019-03-05T16:25:49.852Z,48.20
2019-03-05T16:28:16.984Z,48.70
2019-03-05T16:31:00.229Z,48.90
2019-03-05T16:33:32.508Z,48.50
2019-03-05T16:36:17.383Z,48.70
2019-03-05T16:39:03.947Z,49.20
2019-03-05T16:41:53.408Z,49.30
2019-03-05T16:44:31.318Z,49.40
2019-03-05T16:47:00.670Z,49.50
2019-03-05T16:49:32.206Z,49.40
2019-03-05T16:52:19.609Z,49.80
2019-03-05T16:54:50.944Z,50.00
2019-03-05T16:57:22.450Z,50.10
2019-03-05T16:59:53.707Z,50.20
2019-03-05T17:02:30.972Z,50.10
2019-03-05T17:05:00.360Z,50.10
2019-03-05T17:07:37.439Z,50.30
2019-03-05T17:10:15.493Z,51.70
2019-03-05T17:12:45.092Z,54.20
2019-03-05T17:15:15.135Z,56.00
2019-03-05T17:17:44.734Z,57.30
2019-03-05T17:20:14.776Z,57.40
2019-03-05T17:22:44.372Z,56.10
2019-03-05T17:25:18.330Z,57.20
2019-03-05T17:27:47.953Z,58.20
2019-03-05T17:30:18.647Z,57.20
2019-03-05T17:32:49.101Z,59.20
2019-03-05T17:35:18.987Z,56.70
2019-03-05T17:37:48.857Z,55.50
2019-03-05T17:40:18.626Z,55.60
2019-03-05T17:42:50.126Z,55.50
2019-03-05T17:45:24.659Z,55.20
2019-03-05T17:47:54.658Z,55.50
2019-03-05T17:50:24.384Z,55.60
2019-03-05T17:52:54.004Z,56.60
2019-03-05T17:55:28.719Z,56.80
2019-03-05T17:57:58.485Z,56.60
2019-03-05T18:00:33.002Z,57.10
2019-03-05T18:03:02.596Z,58.20
2019-03-05T18:05:32.323Z,59.20
2019-03-05T18:08:02.129Z,59.40
2019-03-05T18:10:31.933Z,58.70
2019-03-05T18:13:01.615Z,59.00
2019-03-05T18:15:31.204Z,57.60
2019-03-05T18:18:00.886Z,58.20
2019-03-05T18:20:30.644Z,57.80
2019-03-05T18:23:00.258Z,57.70
2019-03-05T18:25:29.958Z,58.00
2019-03-05T18:27:59.546Z,58.00
2019-03-05T18:30:31.142Z,57.80
2019-03-05T18:33:00.939Z,58.30
2019-03-05T18:35:30.562Z,58.10
2019-03-05T18:38:00.159Z,59.00
2019-03-05T18:40:30.151Z,62.70
2019-03-05T18:42:59.910Z,58.90
2019-03-05T18:45:41.751Z,62.00
2019-03-05T18:48:11.534Z,60.00
2019-03-05T18:50:41.224Z,59.50
2019-03-05T18:53:10.980Z,59.30
2019-03-05T18:55:42.178Z,59.00
2019-03-05T18:58:11.788Z,60.80
2019-03-05T19:00:41.613Z,61.40
2019-03-05T19:03:17.752Z,61.70
2019-03-05T19:05:47.744Z,61.30
2019-03-05T19:08:17.350Z,62.20
2019-03-05T19:10:47.029Z,61.30
2019-03-05T19:13:16.783Z,61.80
2019-03-05T19:15:46.744Z,61.20
2019-03-05T19:18:16.334Z,58.60
2019-03-05T19:20:46.017Z,57.90
2019-03-05T19:23:15.608Z,57.20
2019-03-05T19:25:47.227Z,57.50
2019-03-05T19:28:16.994Z,56.90
2019-03-05T19:30:51.891Z,57.20
2019-03-05T19:33:21.643Z,56.10
2019-03-05T19:35:51.256Z,59.80
2019-03-05T19:38:21.479Z,63.60
2019-03-05T19:40:51.133Z,63.10
2019-03-05T19:43:20.745Z,60.10
2019-03-05T19:45:50.403Z,62.90
2019-03-05T19:48:20.087Z,67.20
2019-03-05T19:50:49.669Z,67.70
2019-03-05T19:53:19.360Z,70.50
2019-03-05T19:55:49.046Z,69.50
2019-03-05T19:58:18.655Z,73.40
2019-03-05T20:01:12.726Z,72.50
2019-03-05T20:03:42.409Z,74.70
2019-03-05T20:06:12.503Z,74.00
2019-03-05T20:08:42.111Z,75.20
2019-03-05T20:11:11.793Z,74.70
2019-03-05T20:13:41.452Z,75.90
2019-03-05T20:16:11.338Z,77.10
2019-03-05T20:18:40.930Z,78.90
2019-03-05T20:21:10.822Z,78.00
2019-03-05T20:23:40.403Z,78.50
2019-03-05T20:26:10.028Z,79.50
2019-03-05T20:28:39.615Z,79.90
2019-03-05T20:31:09.441Z,79.90
2019-03-05T20:33:39.033Z,81.00
2019-03-05T20:36:08.715Z,81.70
2019-03-05T20:38:38.300Z,82.00
2019-03-05T20:41:07.919Z,82.20
2019-03-05T20:43:37.502Z,81.80
2019-03-05T20:46:17.677Z,82.40
2019-03-05T20:48:47.403Z,82.70
2019-03-05T20:51:17.016Z,83.30
2019-03-05T20:53:46.602Z,82.90
2019-03-05T20:56:16.284Z,83.50
2019-03-05T20:58:45.879Z,84.60
2019-03-05T21:01:15.561Z,85.60
2019-03-05T21:03:45.248Z,85.20
2019-03-05T21:06:15.161Z,85.60
2019-03-05T21:08:44.775Z,83.70
2019-03-05T21:11:14.428Z,84.30
2019-03-05T21:13:44.111Z,84.70
2019-03-05T21:16:13.836Z,84.30
2019-03-05T21:18:43.455Z,84.30
2019-03-05T21:21:13.043Z,84.80
2019-03-05T21:23:42.670Z,85.40
2019-03-05T21:26:12.342Z,85.20
2019-03-05T21:28:41.944Z,85.20
2019-03-05T21:31:11.629Z,85.80
2019-03-05T21:33:41.214Z,86.10
2019-03-05T21:36:10.835Z,85.70
2019-03-05T21:38:40.441Z,86.90
2019-03-05T21:41:10.131Z,86.80
2019-03-05T21:43:39.722Z,86.60
2019-03-05T21:46:16.445Z,86.40
2019-03-05T21:48:46.101Z,86.20
2019-03-05T21:51:15.699Z,85.50
2019-03-05T21:53:45.324Z,86.50
2019-03-05T21:56:14.938Z,87.20
2019-03-05T21:58:44.526Z,87.80
2019-03-05T22:01:14.216Z,87.90
2019-03-05T22:03:43.825Z,88.00
2019-03-05T22:06:13.421Z,88.40
2019-03-05T22:08:43.043Z,89.50
2019-03-05T22:11:12.635Z,89.40
2019-03-05T22:13:42.315Z,89.20
2019-03-05T22:16:12.107Z,89.70
2019-03-05T22:18:41.761Z,89.70
2019-03-05T22:21:11.382Z,89.60
2019-03-05T22:23:40.979Z,89.10
2019-03-05T22:26:10.588Z,88.30
2019-03-05T22:28:40.253Z,89.00
2019-03-05T22:31:09.865Z,86.50
2019-03-05T22:33:39.455Z,86.30
2019-03-05T22:36:09.137Z,87.00
2019-03-05T22:38:38.722Z,88.40
2019-03-05T22:41:08.326Z,89.70
2019-03-05T22:43:37.985Z,90.00
2019-03-05T22:46:07.667Z,89.90
2019-03-05T22:48:37.292Z,90.00
2019-03-05T22:51:06.887Z,88.90
2019-03-05T22:53:36.480Z,90.20
2019-03-05T22:56:06.232Z,88.50
2019-03-05T22:58:35.818Z,89.70
2019-03-05T23:01:07.223Z,90.10
2019-03-05T23:03:37.518Z,88.70
2019-03-05T23:06:11.675Z,89.80
2019-03-05T23:08:41.330Z,90.40
2019-03-05T23:11:11.180Z,90.10
2019-03-05T23:13:41.072Z,90.00
2019-03-05T23:16:10.892Z,89.10
2019-03-05T23:18:40.586Z,89.40
2019-03-05T23:21:10.936Z,90.40
2019-03-05T23:23:40.625Z,90.10
2019-03-05T23:26:10.724Z,90.00
2019-03-05T23:28:40.478Z,90.80
2019-03-05T23:31:12.772Z,90.70
2019-03-05T23:33:42.598Z,90.80
2019-03-05T23:36:12.417Z,90.90
2019-03-05T23:38:42.231Z,90.80
2019-03-05T23:41:11.844Z,89.50
2019-03-05T23:43:41.505Z,89.70
2019-03-05T23:46:11.176Z,90.50
2019-03-05T23:48:40.901Z,90.10
2019-03-05T23:51:10.584Z,90.40
2019-03-05T23:53:40.196Z,90.50
2019-03-05T23:56:09.808Z,90.10
2019-03-05T23:58:39.422Z,90.40
